createdAt,value
2022-11-24T00:01:07.689Z,12.45
2022-11-24T00:04:11.781Z,13.35
2022-11-24T00:07:14.992Z,13.15
2022-11-24T00:10:21.478Z,12.52
2022-11-24T00:13:25.514Z,13.40
2022-11-24T00:16:36.583Z,13.40
2022-11-24T00:19:39.185Z,14.38
2022-11-24T00:22:41.648Z,14.85
2022-11-24T00:25:44.195Z,14.40
2022-11-24T00:28:48.360Z,14.10
2022-11-24T00:31:50.791Z,14.57
2022-11-24T00:34:54.007Z,16.10
2022-11-24T00:37:56.512Z,16.10
2022-11-24T00:40:58.952Z,16.90
2022-11-24T00:44:01.641Z,14.87
2022-11-24T00:47:04.177Z,16.55
2022-11-24T00:50:07.350Z,15.77
2022-11-24T00:53:10.546Z,15.75
2022-11-24T00:56:13.610Z,16.85
2022-11-24T00:59:17.041Z,15.27
2022-11-24T01:02:19.681Z,16.00
2022-11-24T01:05:23.074Z,15.85
2022-11-24T01:08:25.661Z,15.80
2022-11-24T01:11:54.573Z,16.63
2022-11-24T01:14:58.878Z,14.90
2022-11-24T01:18:01.468Z,16.88
2022-11-24T01:21:09.864Z,16.88
2022-11-24T01:24:13.601Z,16.20
2022-11-24T01:27:16.583Z,16.42
2022-11-24T01:30:22.640Z,17.47
2022-11-24T01:33:26.239Z,16.70
2022-11-24T01:36:29.603Z,17.45
2022-11-24T01:39:32.382Z,18.95
2022-11-24T01:42:50.695Z,18.33
2022-11-24T01:45:54.823Z,20.30
2022-11-24T01:49:11.932Z,19.25
2022-11-24T01:52:20.039Z,18.80
2022-11-24T01:55:28.811Z,19.50
2022-11-24T01:58:36.792Z,21.85
2022-11-24T02:01:40.440Z,21.53
2022-11-24T02:04:45.494Z,21.70
2022-11-24T02:07:48.793Z,22.10
2022-11-24T02:10:54.884Z,21.33
2022-11-24T02:13:58.449Z,21.05
2022-11-24T02:17:01.736Z,23.40
2022-11-24T02:20:07.957Z,22.25
2022-11-24T02:23:28.527Z,23.90
2022-11-24T02:26:48.465Z,23.05
2022-11-24T02:29:51.784Z,24.10
2022-11-24T02:32:55.339Z,21.80
2022-11-24T02:35:58.840Z,23.05
2022-11-24T02:39:03.621Z,24.45
2022-11-24T02:42:12.944Z,26.25
2022-11-24T02:45:16.682Z,23.83
2022-11-24T02:48:19.685Z,24.40
2022-11-24T02:51:23.223Z,22.45
2022-11-24T02:54:25.857Z,27.63
2022-11-24T02:57:28.378Z,26.15
2022-11-24T03:00:30.912Z,25.02
2022-11-24T03:03:33.629Z,26.90
2022-11-24T03:06:36.760Z,26.05
2022-11-24T03:09:39.403Z,25.60
2022-11-24T03:12:43.157Z,27.48
2022-11-24T03:15:45.538Z,25.52
2022-11-24T03:18:51.176Z,26.67
2022-11-24T03:21:53.655Z,27.58
2022-11-24T03:24:56.748Z,27.55
2022-11-24T03:27:59.732Z,26.75
2022-11-24T03:31:02.765Z,25.60
2022-11-24T03:34:06.329Z,23.90
2022-11-24T03:37:09.807Z,25.50
2022-11-24T03:40:13.402Z,26.25
2022-11-24T03:43:15.951Z,26.38
2022-11-24T03:46:19.356Z,26.33
2022-11-24T03:49:22.073Z,24.97
2022-11-24T03:52:26.672Z,25.95
2022-11-24T03:55:30.762Z,24.83
2022-11-24T03:58:33.788Z,26.65
2022-11-24T04:01:36.270Z,26.83
2022-11-24T04:04:39.344Z,27.13
2022-11-24T04:07:42.066Z,28.30
2022-11-24T04:10:44.822Z,28.40
2022-11-24T04:13:48.303Z,26.63
2022-11-24T04:16:51.297Z,28.13
2022-11-24T04:19:54.350Z,28.17
2022-11-24T04:22:57.790Z,29.48
2022-11-24T04:26:00.236Z,29.13
2022-11-24T04:29:03.383Z,29.00
2022-11-24T04:32:06.448Z,28.50
2022-11-24T04:35:10.485Z,31.17
2022-11-24T04:38:13.864Z,29.27
2022-11-24T04:41:37.317Z,30.40
2022-11-24T04:44:39.846Z,30.83
2022-11-24T04:47:42.286Z,31.50
2022-11-24T04:50:44.822Z,32.33
2022-11-24T04:53:49.169Z,30.73
2022-11-24T04:56:52.662Z,29.60
2022-11-24T04:59:55.428Z,29.90
2022-11-24T05:02:58.928Z,30.00
2022-11-24T05:06:02.912Z,28.33
2022-11-24T05:09:08.509Z,29.63
2022-11-24T05:12:11.888Z,29.35
2022-11-24T05:15:14.350Z,27.70
2022-11-24T05:18:16.919Z,29.10
2022-11-24T05:21:19.527Z,28.97
2022-11-24T05:24:22.877Z,27.65
2022-11-24T05:27:26.353Z,27.23
2022-11-24T05:30:30.995Z,27.73
2022-11-24T05:33:35.023Z,27.45
2022-11-24T05:36:57.700Z,26.93
2022-11-24T05:40:00.738Z,26.25
2022-11-24T05:43:03.691Z,27.40
2022-11-24T05:46:06.264Z,28.73
2022-11-24T05:49:08.858Z,27.15
2022-11-24T05:52:11.375Z,27.33
2022-11-24T05:55:15.568Z,25.80
2022-11-24T05:58:18.289Z,24.52
2022-11-24T06:01:20.903Z,22.50
2022-11-24T06:04:23.333Z,24.30
2022-11-24T06:07:25.814Z,22.37
2022-11-24T06:10:28.594Z,24.92
2022-11-24T06:13:31.137Z,26.20
2022-11-24T06:16:34.446Z,23.15
2022-11-24T06:19:41.852Z,24.20
2022-11-24T06:22:45.925Z,23.30
2022-11-24T06:25:51.607Z,22.40
2022-11-24T06:28:55.008Z,22.15
2022-11-24T06:31:57.605Z,23.73
2022-11-24T06:35:01.053Z,21.48
2022-11-24T06:38:05.220Z,21.37
2022-11-24T06:41:13.149Z,20.77
2022-11-24T06:44:15.667Z,22.60
2022-11-24T06:47:24.579Z,22.52
2022-11-24T06:50:44.348Z,20.65
2022-11-24T06:57:26.505Z,20.10
2022-11-24T07:00:35.026Z,20.88
2022-11-24T07:03:42.230Z,18.60
2022-11-24T07:06:45.224Z,21.05
2022-11-24T07:09:48.673Z,21.03
2022-11-24T07:12:52.187Z,21.42
2022-11-24T07:15:55.582Z,20.60
2022-11-24T07:18:59.811Z,21.63
2022-11-24T07:22:03.641Z,20.75
2022-11-24T07:25:09.855Z,21.57
2022-11-24T07:28:12.647Z,19.75
2022-11-24T07:32:30.123Z,19.95
2022-11-24T07:41:47.336Z,19.23
2022-11-24T07:44:57.973Z,19.30
2022-11-24T07:48:17.226Z,19.73
2022-11-24T07:58:10.716Z,20.05
2022-11-24T08:01:25.678Z,19.08
2022-11-24T08:04:42.467Z,17.33
2022-11-24T08:07:45.760Z,19.67
2022-11-24T08:10:48.535Z,19.45
2022-11-24T08:13:51.539Z,21.92
2022-11-24T08:16:54.938Z,20.33
2022-11-24T08:19:58.204Z,19.87
2022-11-24T08:23:11.149Z,20.70
2022-11-24T08:26:23.499Z,19.80
2022-11-24T08:29:29.697Z,22.33
2022-11-24T08:32:33.550Z,20.67
2022-11-24T08:36:11.153Z,18.93
2022-11-24T08:39:14.204Z,19.63
2022-11-24T08:42:17.834Z,22.75
2022-11-24T08:45:26.036Z,22.05
2022-11-24T08:53:13.994Z,20.10
2022-11-24T08:56:19.689Z,20.23
2022-11-24T09:00:46.252Z,21.33
2022-11-24T09:04:12.118Z,20.38
2022-11-24T09:07:27.552Z,21.35
2022-11-24T09:12:18.831Z,20.93
2022-11-24T09:15:44.374Z,20.17
2022-11-24T09:28:58.696Z,19.63
2022-11-24T09:43:56.956Z,55.35
2022-11-24T09:49:14.214Z,22.77
2022-11-24T09:52:39.338Z,18.92
2022-11-24T09:55:58.178Z,19.37
2022-11-24T09:59:34.524Z,19.35
2022-11-24T10:03:21.231Z,19.52
2022-11-24T10:06:35.267Z,17.67
2022-11-24T10:09:51.957Z,18.75
2022-11-24T10:13:26.563Z,19.17
2022-11-24T10:16:51.523Z,18.52
2022-11-24T10:20:20.359Z,18.10
2022-11-24T10:28:52.885Z,20.50
2022-11-24T10:32:00.921Z,17.57
2022-11-24T10:35:18.601Z,18.52
2022-11-24T10:44:20.632Z,17.02
2022-11-24T10:47:26.738Z,19.08
2022-11-24T10:50:36.367Z,18.47
2022-11-24T10:53:41.067Z,18.17
2022-11-24T10:56:46.196Z,18.40
2022-11-24T10:59:52.918Z,19.35
2022-11-24T11:03:23.898Z,17.75
2022-11-24T11:06:32.392Z,17.20
2022-11-24T11:09:36.082Z,17.73
2022-11-24T11:12:44.954Z,17.52
2022-11-24T11:15:49.345Z,16.52
2022-11-24T11:18:53.785Z,17.42
2022-11-24T11:22:03.716Z,16.70
2022-11-24T11:25:19.524Z,17.77
2022-11-24T11:28:28.093Z,16.35
2022-11-24T11:31:41.368Z,16.85
2022-11-24T11:34:46.768Z,15.23
2022-11-24T11:37:51.710Z,15.80
2022-11-24T11:40:55.060Z,16.25
2022-11-24T11:44:22.711Z,15.13
2022-11-24T11:47:30.074Z,15.35
2022-11-24T11:51:14.853Z,16.05
2022-11-24T11:54:45.517Z,13.80
2022-11-24T11:58:05.566Z,13.45
2022-11-24T12:01:26.952Z,13.02
2022-11-24T12:04:43.957Z,13.75
2022-11-24T12:08:10.768Z,14.20
2022-11-24T12:11:34.565Z,12.73
2022-11-24T12:14:53.222Z,12.40
2022-11-24T12:18:56.433Z,13.68
2022-11-24T12:21:57.815Z,14.25
2022-11-24T12:25:32.695Z,13.68
2022-11-24T12:28:44.613Z,13.63
2022-11-24T12:32:26.613Z,13.05
2022-11-24T12:35:39.345Z,13.00
2022-11-24T12:38:42.790Z,11.85
2022-11-24T12:41:46.199Z,11.60
2022-11-24T12:45:13.181Z,12.73
2022-11-24T12:48:29.416Z,13.32
2022-11-24T12:51:39.881Z,12.32
2022-11-24T12:54:42.765Z,12.63
2022-11-24T12:58:36.697Z,12.63
2022-11-24T13:02:00.906Z,12.03
2022-11-24T13:05:33.359Z,11.73
2022-11-24T13:08:39.264Z,12.70
2022-11-24T13:11:44.744Z,11.55
2022-11-24T13:14:49.156Z,11.60
2022-11-24T13:18:07.139Z,12.20
2022-11-24T13:21:48.152Z,12.20
2022-11-24T13:25:22.664Z,11.75
2022-11-24T13:29:09.249Z,11.45
2022-11-24T13:32:23.458Z,12.35
2022-11-24T13:35:27.545Z,12.20
2022-11-24T13:38:42.037Z,11.50
2022-11-24T13:41:47.947Z,11.18
2022-11-24T13:44:52.725Z,14.60
2022-11-24T13:47:55.469Z,11.48
2022-11-24T13:51:04.222Z,11.23
2022-11-24T13:54:16.281Z,11.35
2022-11-24T13:57:40.138Z,11.20
2022-11-24T14:01:11.590Z,10.95
2022-11-24T14:05:30.052Z,11.48
2022-11-24T14:08:38.425Z,12.20
2022-11-24T14:11:42.142Z,11.88
2022-11-24T14:14:47.874Z,11.18
2022-11-24T14:17:53.149Z,11.30
2022-11-24T14:20:56.905Z,11.75
2022-11-24T14:24:04.279Z,10.23
2022-11-24T14:27:14.596Z,12.00
2022-11-24T14:30:20.941Z,11.40
2022-11-24T14:33:25.815Z,12.55
2022-11-24T14:36:28.655Z,12.23
2022-11-24T14:39:41.382Z,12.03
2022-11-24T14:42:50.641Z,12.63
2022-11-24T14:46:00.847Z,12.43
2022-11-24T14:49:04.932Z,12.52
2022-11-24T14:52:18.346Z,12.52
2022-11-24T14:55:28.179Z,12.17
2022-11-24T14:58:37.675Z,12.98
2022-11-24T15:01:43.385Z,12.02
2022-11-24T15:05:06.963Z,12.82
2022-11-24T15:08:14.511Z,13.88
2022-11-24T15:11:18.533Z,12.40
2022-11-24T15:14:52.197Z,11.98
2022-11-24T15:18:02.834Z,22.65
2022-11-24T15:21:06.580Z,13.52
2022-11-24T15:24:19.312Z,15.82
2022-11-24T15:27:21.941Z,12.57
2022-11-24T15:30:25.260Z,13.88
2022-11-24T15:33:28.614Z,15.18
2022-11-24T15:36:32.059Z,11.00
2022-11-24T15:39:34.915Z,12.95
2022-11-24T15:42:38.311Z,13.50
2022-11-24T15:45:41.875Z,17.55
2022-11-24T15:48:45.374Z,13.80
2022-11-24T15:51:48.543Z,12.65
2022-11-24T15:54:56.235Z,13.35
2022-11-24T15:57:58.860Z,12.83
2022-11-24T16:01:02.432Z,12.82
2022-11-24T16:04:05.782Z,13.07
2022-11-24T16:07:12.406Z,14.23
2022-11-24T16:10:28.360Z,13.00
2022-11-24T16:13:31.115Z,12.87
2022-11-24T16:16:33.819Z,14.10
2022-11-24T16:19:41.607Z,14.20
2022-11-24T16:22:45.146Z,12.48
2022-11-24T16:25:47.770Z,14.32
2022-11-24T16:28:50.525Z,12.13
2022-11-24T16:31:55.079Z,13.90
2022-11-24T16:34:58.367Z,13.80
2022-11-24T16:38:01.102Z,13.93
2022-11-24T16:41:04.181Z,12.48
2022-11-24T16:44:06.937Z,14.60
2022-11-24T16:47:12.691Z,13.93
2022-11-24T16:50:18.190Z,14.25
2022-11-24T16:53:21.420Z,14.73
2022-11-24T16:56:24.320Z,14.93
2022-11-24T16:59:27.052Z,11.87
2022-11-24T17:02:29.970Z,13.57
2022-11-24T17:05:32.639Z,13.80
2022-11-24T17:08:38.128Z,15.02
2022-11-24T17:11:41.545Z,12.98
2022-11-24T17:14:52.689Z,13.27
2022-11-24T17:18:24.012Z,13.23
2022-11-24T17:21:28.802Z,13.75
2022-11-24T17:24:32.226Z,15.13
2022-11-24T17:27:35.044Z,16.05
2022-11-24T17:30:38.259Z,12.67
2022-11-24T17:33:40.859Z,14.68
2022-11-24T17:36:46.105Z,14.68
2022-11-24T17:40:12.569Z,15.77
2022-11-24T17:43:13.364Z,13.55
2022-11-24T17:46:19.965Z,13.87
2022-11-24T17:49:23.632Z,13.73
2022-11-24T17:52:26.324Z,13.48
2022-11-24T17:55:29.475Z,14.30
2022-11-24T17:58:39.753Z,13.43
2022-11-24T18:01:45.367Z,13.17
2022-11-24T18:04:49.075Z,13.13
2022-11-24T18:07:51.634Z,14.50
2022-11-24T18:10:54.318Z,13.95
2022-11-24T18:14:01.138Z,14.05
2022-11-24T18:17:04.629Z,13.30
2022-11-24T18:20:07.928Z,12.88
2022-11-24T18:23:11.520Z,13.98
2022-11-24T18:26:16.220Z,14.00
2022-11-24T18:29:19.541Z,12.82
2022-11-24T18:32:22.157Z,13.73
2022-11-24T18:35:24.792Z,14.35
2022-11-24T18:38:28.569Z,13.70
2022-11-24T18:41:32.485Z,14.50
2022-11-24T18:44:36.390Z,14.07
2022-11-24T18:47:39.364Z,13.90
2022-11-24T18:50:44.573Z,14.65
2022-11-24T18:53:53.482Z,15.85
2022-11-24T18:57:01.747Z,14.77
2022-11-24T19:00:08.324Z,14.35
2022-11-24T19:03:11.041Z,15.73
2022-11-24T19:06:19.040Z,15.38
2022-11-24T19:09:23.004Z,14.25
2022-11-24T19:12:26.561Z,15.45
2022-11-24T19:15:33.993Z,14.88
2022-11-24T19:18:37.633Z,13.97
2022-11-24T19:21:43.331Z,14.30
2022-11-24T19:24:46.710Z,14.85
2022-11-24T19:27:49.412Z,15.40
2022-11-24T19:30:52.152Z,15.70
2022-11-24T19:33:58.049Z,15.53
2022-11-24T19:37:00.947Z,15.38
2022-11-24T19:40:05.188Z,15.77
2022-11-24T19:43:08.587Z,15.63
2022-11-24T19:46:14.770Z,15.52
2022-11-24T19:49:17.327Z,16.07
2022-11-24T19:52:20.129Z,14.85
2022-11-24T19:55:23.589Z,17.10
2022-11-24T19:58:26.544Z,15.38
2022-11-24T20:01:39.883Z,16.13
2022-11-24T20:04:43.771Z,16.83
2022-11-24T20:07:46.508Z,17.55
2022-11-24T20:10:50.238Z,16.33
2022-11-24T20:13:53.661Z,15.77
2022-11-24T20:16:57.218Z,16.55
2022-11-24T20:20:00.681Z,16.23
2022-11-24T20:23:03.520Z,15.93
2022-11-24T20:26:19.582Z,16.90
2022-11-24T20:29:23.173Z,15.27
2022-11-24T20:32:28.222Z,16.20
2022-11-24T20:35:30.878Z,15.43
2022-11-24T20:38:34.923Z,15.18
2022-11-24T20:41:40.081Z,15.85
2022-11-24T20:44:42.711Z,16.27
2022-11-24T20:47:45.381Z,16.20
2022-11-24T20:50:51.270Z,15.60
2022-11-24T20:53:59.563Z,16.05
2022-11-24T20:57:02.362Z,16.58
2022-11-24T21:00:06.576Z,16.50
2022-11-24T21:03:10.744Z,18.23
2022-11-24T21:06:14.726Z,15.47
2022-11-24T21:09:19.085Z,16.05
2022-11-24T21:12:22.182Z,15.23
2022-11-24T21:15:25.741Z,15.88
2022-11-24T21:18:28.310Z,14.88
2022-11-24T21:21:35.269Z,14.77
2022-11-24T21:24:38.723Z,15.07
2022-11-24T21:27:42.385Z,16.80
2022-11-24T21:30:45.688Z,15.68
2022-11-24T21:33:50.793Z,16.00
2022-11-24T21:36:53.408Z,16.07
2022-11-24T21:39:55.953Z,17.33
2022-11-24T21:42:59.701Z,16.40
2022-11-24T21:46:06.262Z,16.50
2022-11-24T21:49:09.131Z,16.85
2022-11-24T21:52:12.812Z,16.03
2022-11-24T21:55:15.530Z,17.10
2022-11-24T21:58:18.768Z,17.55
2022-11-24T22:01:28.240Z,14.90
2022-11-24T22:04:32.455Z,16.67
2022-11-24T22:07:35.889Z,17.60
2022-11-24T22:10:38.596Z,17.27
2022-11-24T22:13:43.586Z,17.42
2022-11-24T22:16:46.973Z,17.23
2022-11-24T22:19:50.286Z,17.40
2022-11-24T22:22:52.948Z,17.70
2022-11-24T22:25:55.654Z,16.13
2022-11-24T22:28:58.448Z,16.83
2022-11-24T22:32:01.856Z,16.75
2022-11-24T22:35:05.973Z,17.02
2022-11-24T22:38:09.341Z,17.60
2022-11-24T22:41:17.436Z,17.90
2022-11-24T22:44:19.985Z,17.63
2022-11-24T22:47:22.523Z,16.60
2022-11-24T22:50:25.152Z,16.90
2022-11-24T22:53:28.515Z,16.73
2022-11-24T22:56:33.020Z,17.33
2022-11-24T22:59:36.009Z,17.08
2022-11-24T23:02:38.632Z,15.85
2022-11-24T23:05:41.515Z,16.13
2022-11-24T23:08:44.772Z,16.33
2022-11-24T23:11:49.120Z,15.70
2022-11-24T23:14:51.714Z,16.27
2022-11-24T23:17:54.832Z,15.35
2022-11-24T23:20:57.645Z,16.27
2022-11-24T23:24:02.447Z,17.20
2022-11-24T23:27:05.511Z,16.67
2022-11-24T23:30:08.824Z,16.42
2022-11-24T23:33:11.446Z,16.30
2022-11-24T23:36:19.839Z,16.50
2022-11-24T23:39:24.380Z,16.17
2022-11-24T23:42:27.898Z,16.55
2022-11-24T23:45:30.586Z,15.32
2022-11-24T23:48:36.684Z,16.73
2022-11-24T23:51:42.044Z,17.25
2022-11-24T23:54:44.723Z,15.97
2022-11-24T23:57:47.295Z,15.00
